sensor_id;sensor_type;location;lat;lon;timestamp;pressure;altitude;pressure_sealevel;temperature;humidity
69630;BME280;56857;52.212;5.496;2023-04-26T00:00:31;101992.03;;;4.21;100.00
69630;BME280;56857;52.212;5.496;2023-04-26T00:02:57;101992.03;;;4.21;100.00
69630;BME280;56857;52.212;5.496;2023-04-26T00:05:23;102000.03;;;4.20;100.00
69630;BME280;56857;52.212;5.496;2023-04-26T00:07:49;101997.69;;;4.15;100.00
69630;BME280;56857;52.212;5.496;2023-04-26T00:10:14;101997.81;;;4.13;100.00
69630;BME280;56857;52.212;5.496;2023-04-26T00:12:39;101997.03;;;4.11;100.00
69630;BME280;56857;52.212;5.496;2023-04-26T00:15:05;101997.16;;;4.10;100.00
69630;BME280;56857;52.212;5.496;2023-04-26T00:17:31;102003.53;;;4.06;100.00
69630;BME280;56857;52.212;5.496;2023-04-26T00:19:56;102000.19;;;4.04;100.00
69630;BME280;56857;52.212;5.496;2023-04-26T00:22:22;101998.59;;;4.01;100.00
69630;BME280;56857;52.212;5.496;2023-04-26T00:24:47;101991.75;;;3.99;100.00
69630;BME280;56857;52.212;5.496;2023-04-26T00:27:12;101998.78;;;3.98;100.00
69630;BME280;56857;52.212;5.496;2023-04-26T00:29:38;101993.72;;;3.95;100.00
69630;BME280;56857;52.212;5.496;2023-04-26T00:32:03;101986.06;;;3.92;100.00
69630;BME280;56857;52.212;5.496;2023-04-26T00:34:33;101987.19;;;3.88;100.00
69630;BME280;56857;52.212;5.496;2023-04-26T00:36:58;101985.69;;;3.84;100.00
69630;BME280;56857;52.212;5.496;2023-04-26T00:39:23;101982.34;;;3.82;100.00
69630;BME280;56857;52.212;5.496;2023-04-26T00:41:49;101984.28;;;3.78;100.00
69630;BME280;56857;52.212;5.496;2023-04-26T00:44:14;101977.38;;;3.77;100.00
69630;BME280;56857;52.212;5.496;2023-04-26T00:46:39;101982.81;;;3.74;100.00
69630;BME280;56857;52.212;5.496;2023-04-26T00:49:05;101978.69;;;3.70;100.00
69630;BME280;56857;52.212;5.496;2023-04-26T00:51:31;101977.88;;;3.69;100.00
69630;BME280;56857;52.212;5.496;2023-04-26T00:53:56;101970.06;;;3.68;100.00
69630;BME280;56857;52.212;5.496;2023-04-26T00:56:23;101971.09;;;3.65;100.00
69630;BME280;56857;52.212;5.496;2023-04-26T00:58:49;101969.63;;;3.61;100.00
69630;BME280;56857;52.212;5.496;2023-04-26T01:01:14;101967.00;;;3.61;100.00
69630;BME280;56857;52.212;5.496;2023-04-26T01:03:39;101973.00;;;3.63;100.00
69630;BME280;56857;52.212;5.496;2023-04-26T01:06:05;101968.78;;;3.61;100.00
69630;BME280;56857;52.212;5.496;2023-04-26T01:08:30;101969.94;;;3.57;100.00
69630;BME280;56857;52.212;5.496;2023-04-26T01:10:56;101972.56;;;3.57;100.00
69630;BME280;56857;52.212;5.496;2023-04-26T01:13:23;101976.84;;;3.58;100.00
69630;BME280;56857;52.212;5.496;2023-04-26T01:15:49;101978.63;;;3.57;100.00
69630;BME280;56857;52.212;5.496;2023-04-26T01:18:15;101976.94;;;3.56;100.00
69630;BME280;56857;52.212;5.496;2023-04-26T01:20:40;101989.31;;;3.54;100.00
69630;BME280;56857;52.212;5.496;2023-04-26T01:23:06;101990.34;;;3.52;100.00
69630;BME280;56857;52.212;5.496;2023-04-26T01:25:32;101989.69;;;3.48;100.00
69630;BME280;56857;52.212;5.496;2023-04-26T01:27:57;101988.00;;;3.47;100.00
69630;BME280;56857;52.212;5.496;2023-04-26T01:30:22;101992.50;;;3.45;100.00
69630;BME280;56857;52.212;5.496;2023-04-26T01:32:47;101996.16;;;3.42;100.00
69630;BME280;56857;52.212;5.496;2023-04-26T01:35:13;101992.78;;;3.40;100.00
69630;BME280;56857;52.212;5.496;2023-04-26T01:37:38;101998.97;;;3.39;100.00
69630;BME280;56857;52.212;5.496;2023-04-26T01:40:04;101994.75;;;3.37;100.00
69630;BME280;56857;52.212;5.496;2023-04-26T01:42:30;101995.78;;;3.34;100.00
69630;BME280;56857;52.212;5.496;2023-04-26T01:44:55;101996.81;;;3.32;100.00
69630;BME280;56857;52.212;5.496;2023-04-26T01:47:20;101998.97;;;3.25;100.00
69630;BME280;56857;52.212;5.496;2023-04-26T01:49:46;101987.63;;;3.24;100.00
69630;BME280;56857;52.212;5.496;2023-04-26T01:52:11;101987.63;;;3.24;100.00
69630;BME280;56857;52.212;5.496;2023-04-26T01:54:37;101987.63;;;3.24;100.00
69630;BME280;56857;52.212;5.496;2023-04-26T01:57:02;101993.81;;;3.23;100.00
69630;BME280;56857;52.212;5.496;2023-04-26T01:59:28;101983.63;;;3.19;100.00
69630;BME280;56857;52.212;5.496;2023-04-26T02:01:53;101982.09;;;3.15;100.00
69630;BME280;56857;52.212;5.496;2023-04-26T02:04:18;101986.81;;;3.10;100.00
69630;BME280;56857;52.212;5.496;2023-04-26T02:06:44;101982.59;;;3.07;100.00
69630;BME280;56857;52.212;5.496;2023-04-26T02:09:09;101985.19;;;3.07;100.00
69630;BME280;56857;52.212;5.496;2023-04-26T02:11:34;101979.13;;;3.07;100.00
69630;BME280;56857;52.212;5.496;2023-04-26T02:14:00;101980.97;;;3.05;100.00
69630;BME280;56857;52.212;5.496;2023-04-26T02:16:25;101981.16;;;3.01;100.00
69630;BME280;56857;52.212;5.496;2023-04-26T02:18:50;101984.81;;;2.99;100.00
69630;BME280;56857;52.212;5.496;2023-04-26T02:21:16;101987.44;;;2.99;100.00
69630;BME280;56857;52.212;5.496;2023-04-26T02:23:41;101984.91;;;2.97;100.00
69630;BME280;56857;52.212;5.496;2023-04-26T02:26:07;101989.31;;;2.97;100.00
69630;BME280;56857;52.212;5.496;2023-04-26T02:28:32;101988.47;;;2.96;100.00
69630;BME280;56857;52.212;5.496;2023-04-26T02:30:57;101987.53;;;2.97;100.00
69630;BME280;56857;52.212;5.496;2023-04-26T02:33:23;101988.66;;;2.93;100.00
69630;BME280;56857;52.212;5.496;2023-04-26T02:35:48;101983.78;;;2.87;100.00
69630;BME280;56857;52.212;5.496;2023-04-26T02:38:13;101987.44;;;2.85;100.00
69630;BME280;56857;52.212;5.496;2023-04-26T02:40:38;101987.59;;;2.82;100.00
69630;BME280;56857;52.212;5.496;2023-04-26T02:43:04;101983.38;;;2.79;100.00
69630;BME280;56857;52.212;5.496;2023-04-26T02:45:29;101982.44;;;2.80;100.00
69630;BME280;56857;52.212;5.496;2023-04-26T02:47:54;101981.53;;;2.81;100.00
69630;BME280;56857;52.212;5.496;2023-04-26T02:50:20;101979.94;;;2.78;100.00
69630;BME280;56857;52.212;5.496;2023-04-26T02:52:45;101982.72;;;2.75;100.00
69630;BME280;56857;52.212;5.496;2023-04-26T02:55:11;101977.56;;;2.74;100.00
69630;BME280;56857;52.212;5.496;2023-04-26T02:57:36;101973.19;;;2.74;100.00
69630;BME280;56857;52.212;5.496;2023-04-26T03:00:01;101974.13;;;2.73;100.00
69630;BME280;56857;52.212;5.496;2023-04-26T03:02:27;101972.44;;;2.72;100.00
69630;BME280;56857;52.212;5.496;2023-04-26T03:04:52;101975.13;;;2.71;100.00
69630;BME280;56857;52.212;5.496;2023-04-26T03:07:18;101969.06;;;2.70;100.00
69630;BME280;56857;52.212;5.496;2023-04-26T03:09:43;101973.56;;;2.68;100.00
69630;BME280;56857;52.212;5.496;2023-04-26T03:12:08;101980.47;;;2.69;100.00
69630;BME280;56857;52.212;5.496;2023-04-26T03:14:34;101970.94;;;2.68;100.00
69630;BME280;56857;52.212;5.496;2023-04-26T03:17:00;101962.41;;;2.65;100.00
69630;BME280;56857;52.212;5.496;2023-04-26T03:19:26;101965.97;;;2.64;100.00
69630;BME280;56857;52.212;5.496;2023-04-26T03:21:51;101970.53;;;2.60;100.00
69630;BME280;56857;52.212;5.496;2023-04-26T03:24:17;101961.91;;;2.58;100.00
69630;BME280;56857;52.212;5.496;2023-04-26T03:26:42;101964.66;;;2.57;100.00
69630;BME280;56857;52.212;5.496;2023-04-26T03:29:07;101962.09;;;2.55;100.00
69630;BME280;56857;52.212;5.496;2023-04-26T03:31:33;101958.75;;;2.53;100.00
69630;BME280;56857;52.212;5.496;2023-04-26T03:33:58;101960.59;;;2.51;100.00
69630;BME280;56857;52.212;5.496;2023-04-26T03:36:23;101965.06;;;2.49;100.00
69630;BME280;56857;52.212;5.496;2023-04-26T03:38:49;101964.34;;;2.47;100.00
69630;BME280;56857;52.212;5.496;2023-04-26T03:41:16;101965.34;;;2.44;100.00
69630;BME280;56857;52.212;5.496;2023-04-26T03:43:41;101964.59;;;2.42;100.00
69630;BME280;56857;52.212;5.496;2023-04-26T03:46:07;101954.41;;;2.38;100.00
69630;BME280;56857;52.212;5.496;2023-04-26T03:48:32;101964.22;;;2.34;100.00
69630;BME280;56857;52.212;5.496;2023-04-26T03:50:57;101961.00;;;2.29;100.00
69630;BME280;56857;52.212;5.496;2023-04-26T03:53:23;101955.00;;;2.27;100.00
69630;BME280;56857;52.212;5.496;2023-04-26T03:55:48;101969.88;;;2.26;100.00
69630;BME280;56857;52.212;5.496;2023-04-26T03:58:13;101969.31;;;2.21;100.00
69630;BME280;56857;52.212;5.496;2023-04-26T04:00:39;101972.81;;;2.20;100.00
69630;BME280;56857;52.212;5.496;2023-04-26T04:03:07;101964.91;;;2.22;100.00
69630;BME280;56857;52.212;5.496;2023-04-26T04:05:33;101969.13;;;2.24;100.00
69630;BME280;56857;52.212;5.496;2023-04-26T04:07:58;101965.69;;;2.24;100.00
69630;BME280;56857;52.212;5.496;2023-04-26T04:10:24;101967.34;;;2.25;100.00
69630;BME280;56857;52.212;5.496;2023-04-26T04:12:50;101966.41;;;2.26;100.00
69630;BME280;56857;52.212;5.496;2023-04-26T04:15:16;101974.19;;;2.27;100.00
69630;BME280;56857;52.212;5.496;2023-04-26T04:17:42;101967.19;;;2.28;100.00
69630;BME280;56857;52.212;5.496;2023-04-26T04:20:07;101961.19;;;2.26;100.00
69630;BME280;56857;52.212;5.496;2023-04-26T04:22:33;101959.41;;;2.26;100.00
69630;BME280;56857;52.212;5.496;2023-04-26T04:24:58;101958.56;;;2.26;100.00
69630;BME280;56857;52.212;5.496;2023-04-26T04:27:25;101958.66;;;2.24;100.00
69630;BME280;56857;52.212;5.496;2023-04-26T04:29:50;101959.50;;;2.25;100.00
69630;BME280;56857;52.212;5.496;2023-04-26T04:32:15;101967.25;;;2.26;100.00
69630;BME280;56857;52.212;5.496;2023-04-26T04:34:40;101962.78;;;2.28;100.00
69630;BME280;56857;52.212;5.496;2023-04-26T04:37:06;101959.16;;;2.31;100.00
69630;BME280;56857;52.212;5.496;2023-04-26T04:39:31;101962.44;;;2.35;100.00
69630;BME280;56857;52.212;5.496;2023-04-26T04:41:56;101966.53;;;2.39;100.00
69630;BME280;56857;52.212;5.496;2023-04-26T04:44:22;101970.59;;;2.44;100.00
69630;BME280;56857;52.212;5.496;2023-04-26T04:46:47;101972.84;;;2.50;100.00
69630;BME280;56857;52.212;5.496;2023-04-26T04:49:12;101969.13;;;2.54;100.00
69630;BME280;56857;52.212;5.496;2023-04-26T04:51:38;101968.09;;;2.57;100.00
69630;BME280;56857;52.212;5.496;2023-04-26T04:54:14;101971.38;;;2.61;100.00
69630;BME280;56857;52.212;5.496;2023-04-26T04:56:39;101971.19;;;2.64;100.00
69630;BME280;56857;52.212;5.496;2023-04-26T04:59:05;101973.75;;;2.65;100.00
69630;BME280;56857;52.212;5.496;2023-04-26T05:01:30;101975.41;;;2.66;100.00
69630;BME280;56857;52.212;5.496;2023-04-26T05:03:56;101977.94;;;2.68;100.00
69630;BME280;56857;52.212;5.496;2023-04-26T05:06:21;101967.38;;;2.69;100.00
69630;BME280;56857;52.212;5.496;2023-04-26T05:08:49;101980.53;;;2.68;100.00
69630;BME280;56857;52.212;5.496;2023-04-26T05:11:14;101978.88;;;2.67;100.00
69630;BME280;56857;52.212;5.496;2023-04-26T05:13:39;101981.59;;;2.65;100.00
69630;BME280;56857;52.212;5.496;2023-04-26T05:16:05;101978.97;;;2.65;100.00
69630;BME280;56857;52.212;5.496;2023-04-26T05:18:30;101981.59;;;2.65;100.00
69630;BME280;56857;52.212;5.496;2023-04-26T05:20:56;101991.13;;;2.66;100.00
69630;BME280;56857;52.212;5.496;2023-04-26T05:23:22;101990.94;;;2.69;100.00
69630;BME280;56857;52.212;5.496;2023-04-26T05:25:47;101986.38;;;2.73;100.00
69630;BME280;56857;52.212;5.496;2023-04-26T05:28:12;101986.19;;;2.76;100.00
69630;BME280;56857;52.212;5.496;2023-04-26T05:30:38;101991.25;;;2.79;100.00
69630;BME280;56857;52.212;5.496;2023-04-26T05:33:03;101993.56;;;2.84;100.00
69630;BME280;56857;52.212;5.496;2023-04-26T05:35:29;101991.66;;;2.87;100.00
69630;BME280;56857;52.212;5.496;2023-04-26T05:37:54;101991.34;;;2.92;100.00
69630;BME280;56857;52.212;5.496;2023-04-26T05:40:19;101991.19;;;2.95;100.00
69630;BME280;56857;52.212;5.496;2023-04-26T05:42:45;101998.75;;;2.99;100.00
69630;BME280;56857;52.212;5.496;2023-04-26T05:45:10;102003.78;;;3.02;100.00
69630;BME280;56857;52.212;5.496;2023-04-26T05:47:36;102006.16;;;3.07;100.00
69630;BME280;56857;52.212;5.496;2023-04-26T05:50:01;102013.84;;;3.10;100.00
69630;BME280;56857;52.212;5.496;2023-04-26T05:52:26;102015.50;;;3.11;100.00
69630;BME280;56857;52.212;5.496;2023-04-26T05:54:52;102015.31;;;3.14;100.00
69630;BME280;56857;52.212;5.496;2023-04-26T05:57:17;102014.19;;;3.18;100.00
69630;BME280;56857;52.212;5.496;2023-04-26T05:59:43;102014.78;;;3.23;100.00
69630;BME280;56857;52.212;5.496;2023-04-26T06:02:08;102010.28;;;3.25;100.00
69630;BME280;56857;52.212;5.496;2023-04-26T06:04:33;102010.00;;;3.30;100.00
69630;BME280;56857;52.212;5.496;2023-04-26T06:06:59;102019.84;;;3.41;100.00
69630;BME280;56857;52.212;5.496;2023-04-26T06:09:24;102015.59;;;3.53;100.00
69630;BME280;56857;52.212;5.496;2023-04-26T06:11:49;102021.59;;;3.69;100.00
69630;BME280;56857;52.212;5.496;2023-04-26T06:14:15;102019.59;;;3.87;100.00
69630;BME280;56857;52.212;5.496;2023-04-26T06:16:40;102017.41;;;4.08;100.00
69630;BME280;56857;52.212;5.496;2023-04-26T06:19:06;102023.13;;;4.27;100.00
69630;BME280;56857;52.212;5.496;2023-04-26T06:21:31;102022.22;;;4.41;100.00
69630;BME280;56857;52.212;5.496;2023-04-26T06:23:56;102017.66;;;4.45;100.00
69630;BME280;56857;52.212;5.496;2023-04-26T06:26:22;102018.81;;;4.53;100.00
69630;BME280;56857;52.212;5.496;2023-04-26T06:28:48;102016.41;;;4.63;100.00
69630;BME280;56857;52.212;5.496;2023-04-26T06:31:13;102020.22;;;4.72;100.00
69630;BME280;56857;52.212;5.496;2023-04-26T06:33:39;102022.03;;;4.84;100.00
69630;BME280;56857;52.212;5.496;2023-04-26T06:36:04;102020.44;;;4.94;100.00
69630;BME280;56857;52.212;5.496;2023-04-26T06:38:29;102018.16;;;5.02;100.00
69630;BME280;56857;52.212;5.496;2023-04-26T06:40:55;102014.06;;;5.11;100.00
69630;BME280;56857;52.212;5.496;2023-04-26T06:43:21;102017.00;;;5.19;100.00
69630;BME280;56857;52.212;5.496;2023-04-26T06:45:47;102021.94;;;5.24;100.00
69630;BME280;56857;52.212;5.496;2023-04-26T06:48:12;102029.41;;;5.30;100.00
69630;BME280;56857;52.212;5.496;2023-04-26T06:50:37;102021.72;;;5.40;100.00
69630;BME280;56857;52.212;5.496;2023-04-26T06:53:03;102026.13;;;5.52;100.00
69630;BME280;56857;52.212;5.496;2023-04-26T06:55:28;102031.47;;;5.63;100.00
69630;BME280;56857;52.212;5.496;2023-04-26T06:57:55;102028.72;;;5.77;100.00
69630;BME280;56857;52.212;5.496;2023-04-26T07:00:20;102031.13;;;5.93;100.00
69630;BME280;56857;52.212;5.496;2023-04-26T07:02:46;102038.16;;;6.06;100.00
69630;BME280;56857;52.212;5.496;2023-04-26T07:05:11;102033.16;;;6.14;100.00
69630;BME280;56857;52.212;5.496;2023-04-26T07:07:36;102041.13;;;6.25;100.00
69630;BME280;56857;52.212;5.496;2023-04-26T07:10:02;102031.00;;;6.43;100.00
69630;BME280;56857;52.212;5.496;2023-04-26T07:12:28;102028.22;;;6.57;100.00
69630;BME280;56857;52.212;5.496;2023-04-26T07:14:53;102024.06;;;6.66;100.00
69630;BME280;56857;52.212;5.496;2023-04-26T07:17:18;102031.03;;;6.78;100.00
69630;BME280;56857;52.212;5.496;2023-04-26T07:19:43;102021.94;;;6.93;100.00
69630;BME280;56857;52.212;5.496;2023-04-26T07:22:09;102022.81;;;7.05;100.00
69630;BME280;56857;52.212;5.496;2023-04-26T07:24:36;102026.91;;;7.20;100.00
69630;BME280;56857;52.212;5.496;2023-04-26T07:27:02;102024.06;;;7.35;100.00
69630;BME280;56857;52.212;5.496;2023-04-26T07:29:27;102026.94;;;7.43;100.00
69630;BME280;56857;52.212;5.496;2023-04-26T07:31:52;102027.53;;;7.47;100.00
69630;BME280;56857;52.212;5.496;2023-04-26T07:34:17;102029.69;;;7.53;100.00
69630;BME280;56857;52.212;5.496;2023-04-26T07:36:43;102027.06;;;7.53;100.00
69630;BME280;56857;52.212;5.496;2023-04-26T07:39:08;102019.13;;;7.64;100.00
69630;BME280;56857;52.212;5.496;2023-04-26T07:41:33;102025.97;;;7.78;100.00
69630;BME280;56857;52.212;5.496;2023-04-26T07:43:59;102019.84;;;7.88;100.00
69630;BME280;56857;52.212;5.496;2023-04-26T07:46:24;102023.28;;;8.00;100.00
69630;BME280;56857;52.212;5.496;2023-04-26T07:48:50;102028.66;;;8.10;100.00
69630;BME280;56857;52.212;5.496;2023-04-26T07:51:15;102026.47;;;8.15;100.00
69630;BME280;56857;52.212;5.496;2023-04-26T07:53:40;102034.63;;;8.23;100.00
69630;BME280;56857;52.212;5.496;2023-04-26T07:56:07;102026.38;;;8.17;100.00
69630;BME280;56857;52.212;5.496;2023-04-26T07:58:33;102035.00;;;8.19;100.00
69630;BME280;56857;52.212;5.496;2023-04-26T08:00:59;102032.00;;;8.12;100.00
69630;BME280;56857;52.212;5.496;2023-04-26T08:03:25;102039.06;;;8.23;100.00
69630;BME280;56857;52.212;5.496;2023-04-26T08:05:50;102038.78;;;8.37;100.00
69630;BME280;56857;52.212;5.496;2023-04-26T08:08:15;102043.97;;;8.27;100.00
69630;BME280;56857;52.212;5.496;2023-04-26T08:10:41;102045.16;;;8.34;100.00
69630;BME280;56857;52.212;5.496;2023-04-26T08:13:07;102047.53;;;8.38;100.00
69630;BME280;56857;52.212;5.496;2023-04-26T08:15:32;102049.13;;;8.40;100.00
69630;BME280;56857;52.212;5.496;2023-04-26T08:17:57;102050.34;;;8.25;100.00
69630;BME280;56857;52.212;5.496;2023-04-26T08:20:23;102046.19;;;8.11;100.00
69630;BME280;56857;52.212;5.496;2023-04-26T08:22:48;102044.75;;;8.07;100.00
69630;BME280;56857;52.212;5.496;2023-04-26T08:25:14;102044.97;;;8.26;100.00
69630;BME280;56857;52.212;5.496;2023-04-26T08:27:39;102048.19;;;8.30;100.00
69630;BME280;56857;52.212;5.496;2023-04-26T08:30:07;102050.09;;;8.39;100.00
69630;BME280;56857;52.212;5.496;2023-04-26T08:32:33;102040.47;;;8.49;100.00
69630;BME280;56857;52.212;5.496;2023-04-26T08:34:58;102039.50;;;8.71;100.00
69630;BME280;56857;52.212;5.496;2023-04-26T08:37:23;102042.69;;;8.86;100.00
69630;BME280;56857;52.212;5.496;2023-04-26T08:39:49;102038.34;;;8.85;100.00
69630;BME280;56857;52.212;5.496;2023-04-26T08:42:15;102041.97;;;9.05;100.00
69630;BME280;56857;52.212;5.496;2023-04-26T08:44:45;102039.97;;;8.97;100.00
69630;BME280;56857;52.212;5.496;2023-04-26T08:49:41;102034.50;;;8.89;100.00
69630;BME280;56857;52.212;5.496;2023-04-26T08:52:12;102040.94;;;8.75;100.00
69630;BME280;56857;52.212;5.496;2023-04-26T08:54:39;102037.31;;;8.55;100.00
69630;BME280;56857;52.212;5.496;2023-04-26T08:57:05;102045.00;;;8.47;100.00
69630;BME280;56857;52.212;5.496;2023-04-26T08:59:41;102049.81;;;8.53;100.00
69630;BME280;56857;52.212;5.496;2023-04-26T09:02:09;102051.88;;;8.50;100.00
69630;BME280;56857;52.212;5.496;2023-04-26T09:04:34;102046.81;;;8.47;100.00
69630;BME280;56857;52.212;5.496;2023-04-26T09:07:02;102038.28;;;8.54;100.00
69630;BME280;56857;52.212;5.496;2023-04-26T09:09:33;102036.56;;;8.65;100.00
69630;BME280;56857;52.212;5.496;2023-04-26T09:12:00;102035.31;;;8.69;100.00
69630;BME280;56857;52.212;5.496;2023-04-26T09:14:26;102034.03;;;8.84;100.00
69630;BME280;56857;52.212;5.496;2023-04-26T09:16:51;102036.69;;;8.84;100.00
69630;BME280;56857;52.212;5.496;2023-04-26T09:19:17;102034.94;;;8.94;100.00
69630;BME280;56857;52.212;5.496;2023-04-26T09:21:58;102035.00;;;9.04;100.00
69630;BME280;56857;52.212;5.496;2023-04-26T09:24:23;102032.41;;;9.14;100.00
69630;BME280;56857;52.212;5.496;2023-04-26T09:27:00;102039.19;;;9.27;100.00
69630;BME280;56857;52.212;5.496;2023-04-26T09:29:25;102045.97;;;9.51;100.00
69630;BME280;56857;52.212;5.496;2023-04-26T09:31:50;102039.53;;;9.74;100.00
69630;BME280;56857;52.212;5.496;2023-04-26T09:34:16;102042.72;;;9.78;100.00
69630;BME280;56857;52.212;5.496;2023-04-26T09:36:53;102047.53;;;9.94;100.00
69630;BME280;56857;52.212;5.496;2023-04-26T09:39:38;102043.25;;;10.22;100.00
69630;BME280;56857;52.212;5.496;2023-04-26T09:42:05;102041.91;;;10.47;100.00
69630;BME280;56857;52.212;5.496;2023-04-26T09:44:30;102051.41;;;10.59;100.00
69630;BME280;56857;52.212;5.496;2023-04-26T09:47:06;102039.78;;;10.80;100.00
69630;BME280;56857;52.212;5.496;2023-04-26T09:49:43;102039.63;;;11.01;100.00
69630;BME280;56857;52.212;5.496;2023-04-26T09:52:09;102043.31;;;11.27;100.00
69630;BME280;56857;52.212;5.496;2023-04-26T09:54:44;102039.94;;;11.45;100.00
69630;BME280;56857;52.212;5.496;2023-04-26T09:57:11;102044.63;;;11.60;100.00
69630;BME280;56857;52.212;5.496;2023-04-26T09:59:41;102037.72;;;11.68;100.00
69630;BME280;56857;52.212;5.496;2023-04-26T10:02:20;102036.88;;;11.67;100.00
69630;BME280;56857;52.212;5.496;2023-04-26T10:04:48;102037.81;;;11.48;100.00
69630;BME280;56857;52.212;5.496;2023-04-26T10:07:15;102042.84;;;11.51;100.00
69630;BME280;56857;52.212;5.496;2023-04-26T10:09:42;102040.75;;;11.45;100.00
69630;BME280;56857;52.212;5.496;2023-04-26T10:12:09;102033.47;;;11.47;100.00
69630;BME280;56857;52.212;5.496;2023-04-26T10:14:36;102031.84;;;11.36;100.00
69630;BME280;56857;52.212;5.496;2023-04-26T10:17:07;102033.63;;;10.99;100.00
69630;BME280;56857;52.212;5.496;2023-04-26T10:19:33;102033.53;;;10.52;98.14
69630;BME280;56857;52.212;5.496;2023-04-26T10:22:04;102032.97;;;10.38;100.00
69630;BME280;56857;52.212;5.496;2023-04-26T10:24:31;102038.06;;;10.20;100.00
69630;BME280;56857;52.212;5.496;2023-04-26T10:26:56;102040.56;;;10.03;100.00
69630;BME280;56857;52.212;5.496;2023-04-26T10:29:23;102032.31;;;9.96;100.00
69630;BME280;56857;52.212;5.496;2023-04-26T10:34:26;102040.50;;;10.43;100.00
69630;BME280;56857;52.212;5.496;2023-04-26T10:37:20;102034.94;;;10.75;100.00
69630;BME280;56857;52.212;5.496;2023-04-26T10:39:46;102033.31;;;11.11;100.00
69630;BME280;56857;52.212;5.496;2023-04-26T10:42:24;102030.19;;;11.35;100.00
69630;BME280;56857;52.212;5.496;2023-04-26T10:44:57;102037.06;;;11.56;100.00
69630;BME280;56857;52.212;5.496;2023-04-26T10:47:25;102025.31;;;11.58;100.00
69630;BME280;56857;52.212;5.496;2023-04-26T10:49:51;102028.44;;;11.44;100.00
69630;BME280;56857;52.212;5.496;2023-04-26T10:52:20;102022.66;;;11.21;99.15
69630;BME280;56857;52.212;5.496;2023-04-26T10:54:50;102034.41;;;11.19;99.06
69630;BME280;56857;52.212;5.496;2023-04-26T10:57:15;102026.50;;;10.99;96.92
69630;BME280;56857;52.212;5.496;2023-04-26T11:05:09;102029.00;;;10.13;97.67
69630;BME280;56857;52.212;5.496;2023-04-26T11:07:37;102032.19;;;9.97;98.70
69630;BME280;56857;52.212;5.496;2023-04-26T11:10:07;102037.88;;;9.93;100.00
69630;BME280;56857;52.212;5.496;2023-04-26T11:12:32;102026.88;;;9.88;100.00
69630;BME280;56857;52.212;5.496;2023-04-26T11:15:01;102028.69;;;9.87;100.00
69630;BME280;56857;52.212;5.496;2023-04-26T11:17:27;102027.78;;;9.77;100.00
69630;BME280;56857;52.212;5.496;2023-04-26T11:19:52;102019.13;;;9.65;99.73
69630;BME280;56857;52.212;5.496;2023-04-26T11:22:21;102016.31;;;9.57;98.48
69630;BME280;56857;52.212;5.496;2023-04-26T11:24:46;102018.09;;;9.47;97.29
69630;BME280;56857;52.212;5.496;2023-04-26T11:27:11;102019.41;;;9.32;97.21
69630;BME280;56857;52.212;5.496;2023-04-26T11:29:37;102009.25;;;9.27;98.37
69630;BME280;56857;52.212;5.496;2023-04-26T11:32:03;102010.34;;;9.24;98.04
69630;BME280;56857;52.212;5.496;2023-04-26T11:34:33;102012.78;;;9.16;97.48
69630;BME280;56857;52.212;5.496;2023-04-26T11:36:58;102001.38;;;9.16;98.33
69630;BME280;56857;52.212;5.496;2023-04-26T11:39:25;102007.97;;;9.21;99.60
69630;BME280;56857;52.212;5.496;2023-04-26T11:41:55;102002.28;;;9.36;100.00
69630;BME280;56857;52.212;5.496;2023-04-26T11:44:20;102006.16;;;9.52;100.00
69630;BME280;56857;52.212;5.496;2023-04-26T11:46:49;102012.53;;;9.50;99.75
69630;BME280;56857;52.212;5.496;2023-04-26T11:49:15;102009.88;;;9.50;98.67
69630;BME280;56857;52.212;5.496;2023-04-26T11:51:42;102009.69;;;9.42;99.14
69630;BME280;56857;52.212;5.496;2023-04-26T11:54:07;102015.44;;;9.47;99.31
69630;BME280;56857;52.212;5.496;2023-04-26T11:56:32;102013.44;;;9.70;99.84
69630;BME280;56857;52.212;5.496;2023-04-26T11:58:58;102013.44;;;9.70;97.10
69630;BME280;56857;52.212;5.496;2023-04-26T12:01:28;102009.13;;;9.79;96.65
69630;BME280;56857;52.212;5.496;2023-04-26T12:03:55;102008.06;;;9.91;96.76
69630;BME280;56857;52.212;5.496;2023-04-26T12:06:40;102011.81;;;9.98;95.89
69630;BME280;56857;52.212;5.496;2023-04-26T12:09:06;102014.66;;;10.06;94.72
69630;BME280;56857;52.212;5.496;2023-04-26T12:11:31;102012.00;;;10.26;94.42
69630;BME280;56857;52.212;5.496;2023-04-26T12:13:57;102011.31;;;10.53;95.14
69630;BME280;56857;52.212;5.496;2023-04-26T12:16:22;102014.38;;;10.77;93.41
69630;BME280;56857;52.212;5.496;2023-04-26T12:18:54;102019.38;;;11.00;91.80
69630;BME280;56857;52.212;5.496;2023-04-26T12:21:20;102013.50;;;11.43;89.33
69630;BME280;56857;52.212;5.496;2023-04-26T12:23:45;102015.78;;;11.93;84.27
69630;BME280;56857;52.212;5.496;2023-04-26T12:26:10;102016.59;;;12.39;79.71
69630;BME280;56857;52.212;5.496;2023-04-26T12:28:36;102022.34;;;12.52;77.06
69630;BME280;56857;52.212;5.496;2023-04-26T12:31:01;102019.63;;;12.62;74.05
69630;BME280;56857;52.212;5.496;2023-04-26T12:33:27;102019.91;;;12.77;70.70
69630;BME280;56857;52.212;5.496;2023-04-26T12:35:52;102013.06;;;13.27;69.48
69630;BME280;56857;52.212;5.496;2023-04-26T12:38:17;102012.00;;;13.88;65.40
69630;BME280;56857;52.212;5.496;2023-04-26T12:40:43;102012.91;;;14.21;62.33
69630;BME280;56857;52.212;5.496;2023-04-26T12:43:09;102015.47;;;13.80;56.77
69630;BME280;56857;52.212;5.496;2023-04-26T12:45:34;102021.06;;;13.53;58.93
69630;BME280;56857;52.212;5.496;2023-04-26T12:47:59;102011.25;;;13.27;58.95
69630;BME280;56857;52.212;5.496;2023-04-26T12:50:26;102008.41;;;12.76;59.32
69630;BME280;56857;52.212;5.496;2023-04-26T12:52:51;102006.19;;;12.46;62.35
69630;BME280;56857;52.212;5.496;2023-04-26T12:55:18;102006.22;;;12.00;62.28